AFR351 BIKF-BGKK
Flight info
| Callsign | AFR351 |
|---|---|
| Flight time | N/A |
| Altitude | 34000 |
| Route | RALOV3A RALOV DCT SOSIT DCT SABAG |
| Aircraft | B738/M-SDE2E3FGHIRWXY/LB1 |
Departure
| Time | 2026-05-07 15:32 |
|---|---|
| Airport | Keflavik International Airport (BIKF) |
Arrival
| Time | N/A |
|---|---|
| Airport | Kulusuk Airport (BGKK) |
| Time | Latitude | Longitude | Altitude | Speed | Heading |
|---|---|---|---|---|---|
| 2026-05-07 15:26 | 63.97513 | -22.59643 | 144 ft | 4 kts | 91° |
| 2026-05-07 15:26 | 63.97518 | -22.59555 | 144 ft | 7 kts | 82° |
| 2026-05-07 15:26 | 63.97512 | -22.59443 | 144 ft | 7 kts | 118° |
| 2026-05-07 15:26 | 63.97473 | -22.59375 | 143 ft | 7 kts | 157° |
| 2026-05-07 15:27 | 63.97418 | -22.59327 | 143 ft | 9 kts | 173° |
| 2026-05-07 15:27 | 63.97346 | -22.59324 | 143 ft | 12 kts | 182° |
| 2026-05-07 15:27 | 63.97264 | -22.59387 | 143 ft | 13 kts | 204° |
| 2026-05-07 15:27 | 63.97235 | -22.59564 | 143 ft | 14 kts | 293° |
| 2026-05-07 15:28 | 63.97271 | -22.59761 | 143 ft | 13 kts | 292° |
| 2026-05-07 15:28 | 63.97307 | -22.59959 | 144 ft | 14 kts | 293° |
| 2026-05-07 15:28 | 63.97349 | -22.60172 | 144 ft | 15 kts | 295° |
| 2026-05-07 15:28 | 63.97392 | -22.60390 | 145 ft | 15 kts | 290° |
| 2026-05-07 15:29 | 63.97424 | -22.60617 | 145 ft | 16 kts | 285° |
| 2026-05-07 15:29 | 63.97443 | -22.60872 | 144 ft | 17 kts | 254° |
| 2026-05-07 15:29 | 63.97336 | -22.60948 | 144 ft | 18 kts | 180° |
| 2026-05-07 15:29 | 63.97200 | -22.60947 | 143 ft | 21 kts | 179° |
| 2026-05-07 15:30 | 63.97049 | -22.60943 | 142 ft | 23 kts | 179° |
| 2026-05-07 15:30 | 63.96883 | -22.60941 | 141 ft | 25 kts | 180° |
| 2026-05-07 15:30 | 63.96703 | -22.60940 | 140 ft | 27 kts | 182° |
| 2026-05-07 15:30 | 63.96526 | -22.60943 | 139 ft | 21 kts | 176° |
| 2026-05-07 15:31 | 63.96460 | -22.60707 | 139 ft | 20 kts | 90° |
| 2026-05-07 15:31 | 63.96540 | -22.60540 | 139 ft | 19 kts | 358° |
| 2026-05-07 15:31 | 63.96672 | -22.60542 | 141 ft | 19 kts | 0° |
| 2026-05-07 15:31 | 63.96835 | -22.60541 | 142 ft | 48 kts | 0° |
| 2026-05-07 15:32 | 63.97477 | -22.60540 | 146 ft | 133 kts | 2° |
| 2026-05-07 15:32 | 63.98155 | -22.60462 | 415 ft | 158 kts | 3° |
| 2026-05-07 15:32 | 63.99313 | -22.60333 | 1323 ft | 173 kts | 6° |
| 2026-05-07 15:32 | 64.00552 | -22.60307 | 2416 ft | 181 kts | 1° |
| 2026-05-07 15:33 | 64.02229 | -22.60423 | 3905 ft | 182 kts | 1° |
| 2026-05-07 15:33 | 64.03085 | -22.60542 | 4638 ft | 185 kts | 354° |
| 2026-05-07 15:33 | 64.04285 | -22.61707 | 5631 ft | 193 kts | 329° |
| 2026-05-07 15:33 | 64.05546 | -22.64599 | 6918 ft | 199 kts | 303° |
| 2026-05-07 15:34 | 64.05958 | -22.66501 | 7581 ft | 198 kts | 298° |
| 2026-05-07 15:34 | 64.06337 | -22.69517 | 8506 ft | 200 kts | 275° |
| 2026-05-07 15:34 | 64.06302 | -22.72688 | 9422 ft | 198 kts | 275° |
| 2026-05-07 15:34 | 64.06301 | -22.75799 | 10297 ft | 195 kts | 275° |
| 2026-05-07 15:35 | 64.06302 | -22.78877 | 11078 ft | 192 kts | 274° |
| 2026-05-07 15:35 | 64.06301 | -22.81918 | 11830 ft | 190 kts | 274° |
| 2026-05-07 15:35 | 64.06298 | -22.84926 | 12563 ft | 189 kts | 276° |
| 2026-05-07 15:35 | 64.06294 | -22.87910 | 13282 ft | 187 kts | 276° |
| 2026-05-07 15:36 | 64.06289 | -22.90860 | 13973 ft | 185 kts | 276° |
| 2026-05-07 15:36 | 64.06284 | -22.93780 | 14570 ft | 184 kts | 275° |
| 2026-05-07 15:36 | 64.06279 | -22.96664 | 15114 ft | 183 kts | 275° |
| 2026-05-07 15:36 | 64.06272 | -22.99571 | 15656 ft | 182 kts | 275° |
| 2026-05-07 15:37 | 64.06264 | -23.02453 | 16172 ft | 181 kts | 276° |
| 2026-05-07 15:37 | 64.06254 | -23.05328 | 16685 ft | 180 kts | 276° |
| 2026-05-07 15:37 | 64.06245 | -23.08170 | 17165 ft | 179 kts | 276° |
| 2026-05-07 15:37 | 64.06234 | -23.11011 | 17622 ft | 178 kts | 276° |
| 2026-05-07 15:38 | 64.06224 | -23.13830 | 18052 ft | 178 kts | 275° |
| 2026-05-07 15:38 | 64.06214 | -23.16657 | 18435 ft | 178 kts | 275° |
| 2026-05-07 15:38 | 64.06204 | -23.19489 | 18789 ft | 178 kts | 274° |
| 2026-05-07 15:38 | 64.06192 | -23.22324 | 19083 ft | 179 kts | 275° |
| 2026-05-07 15:39 | 64.06181 | -23.25166 | 19392 ft | 179 kts | 276° |
| 2026-05-07 15:39 | 64.06169 | -23.28002 | 19686 ft | 178 kts | 275° |
| 2026-05-07 15:39 | 64.06156 | -23.30842 | 19954 ft | 179 kts | 276° |
| 2026-05-07 15:39 | 64.06143 | -23.33686 | 20187 ft | 180 kts | 274° |
| 2026-05-07 15:40 | 64.06129 | -23.36551 | 20409 ft | 181 kts | 274° |
| 2026-05-07 15:40 | 64.06115 | -23.39427 | 20640 ft | 181 kts | 274° |
| 2026-05-07 15:40 | 64.06099 | -23.42300 | 20842 ft | 181 kts | 275° |
| 2026-05-07 15:40 | 64.06084 | -23.45182 | 21059 ft | 181 kts | 275° |
| 2026-05-07 15:41 | 64.06068 | -23.48060 | 21247 ft | 182 kts | 274° |
| 2026-05-07 15:41 | 64.06051 | -23.50947 | 21422 ft | 181 kts | 276° |
| 2026-05-07 15:41 | 64.06035 | -23.53862 | 21496 ft | 191 kts | 276° |
| 2026-05-07 15:41 | 64.06024 | -23.57210 | 20949 ft | 233 kts | 274° |
| 2026-05-07 15:42 | 64.06004 | -23.61304 | 20260 ft | 281 kts | 274° |
| 2026-05-07 15:42 | 64.05972 | -23.66052 | 20003 ft | 314 kts | 273° |
| 2026-05-07 15:42 | 64.05930 | -23.71176 | 20156 ft | 332 kts | 272° |
| 2026-05-07 15:42 | 64.05887 | -23.76598 | 20291 ft | 350 kts | 272° |
| 2026-05-07 15:43 | 64.05840 | -23.82301 | 20407 ft | 367 kts | 271° |
| 2026-05-07 15:43 | 64.05787 | -23.88264 | 20534 ft | 383 kts | 271° |
| 2026-05-07 15:43 | 64.05342 | -23.94409 | 20685 ft | 403 kts | 253° |
| 2026-05-07 15:43 | 64.04232 | -24.00255 | 21160 ft | 408 kts | 248° |
| 2026-05-07 15:44 | 64.03080 | -24.06191 | 21691 ft | 411 kts | 249° |
| 2026-05-07 15:44 | 64.01954 | -24.12217 | 22183 ft | 414 kts | 250° |
| 2026-05-07 15:44 | 64.00840 | -24.18316 | 22642 ft | 418 kts | 250° |
| 2026-05-07 15:44 | 63.99729 | -24.24460 | 23140 ft | 421 kts | 250° |
| 2026-05-07 15:45 | 63.98611 | -24.30649 | 23590 ft | 425 kts | 250° |
| 2026-05-07 15:45 | 63.97479 | -24.36903 | 23996 ft | 429 kts | 250° |
| 2026-05-07 15:45 | 63.96338 | -24.43184 | 24392 ft | 431 kts | 250° |
| 2026-05-07 15:45 | 63.95182 | -24.49515 | 24783 ft | 433 kts | 250° |
| 2026-05-07 15:46 | 63.92850 | -24.62234 | 25502 ft | 439 kts | 250° |
| 2026-05-07 15:46 | 63.91664 | -24.68676 | 25864 ft | 442 kts | 250° |
| 2026-05-07 15:46 | 63.90470 | -24.75127 | 26226 ft | 444 kts | 250° |
| 2026-05-07 15:47 | 63.89376 | -24.81673 | 26551 ft | 444 kts | 259° |
| 2026-05-07 15:47 | 63.89157 | -24.88600 | 26826 ft | 439 kts | 281° |
| 2026-05-07 15:47 | 63.89922 | -24.95249 | 27246 ft | 433 kts | 294° |
| 2026-05-07 15:47 | 63.91116 | -25.01496 | 27590 ft | 434 kts | 298° |
| 2026-05-07 15:48 | 63.92402 | -25.07662 | 27867 ft | 437 kts | 298° |
| 2026-05-07 15:48 | 63.93741 | -25.13978 | 28163 ft | 439 kts | 298° |
| 2026-05-07 15:48 | 63.95047 | -25.20171 | 28500 ft | 441 kts | 298° |
| 2026-05-07 15:48 | 63.96364 | -25.26494 | 28819 ft | 443 kts | 298° |
| 2026-05-07 15:49 | 63.97679 | -25.32892 | 29115 ft | 445 kts | 298° |
| 2026-05-07 15:49 | 63.98977 | -25.39281 | 29406 ft | 447 kts | 298° |
| 2026-05-07 15:49 | 64.00278 | -25.45738 | 29797 ft | 447 kts | 298° |
| 2026-05-07 15:49 | 64.01561 | -25.52149 | 30278 ft | 445 kts | 298° |
| 2026-05-07 15:50 | 64.02838 | -25.58561 | 30691 ft | 442 kts | 298° |
| 2026-05-07 15:50 | 64.04110 | -25.64964 | 30989 ft | 443 kts | 298° |
| 2026-05-07 15:50 | 64.05380 | -25.71372 | 31215 ft | 444 kts | 298° |
| 2026-05-07 15:50 | 64.06650 | -25.77794 | 31491 ft | 444 kts | 298° |
| 2026-05-07 15:51 | 64.07915 | -25.84219 | 31806 ft | 444 kts | 298° |
| 2026-05-07 15:51 | 64.09180 | -25.90659 | 32122 ft | 443 kts | 298° |
| 2026-05-07 15:51 | 64.10440 | -25.97096 | 32394 ft | 444 kts | 297° |
| 2026-05-07 15:51 | 64.11702 | -26.03562 | 32655 ft | 444 kts | 297° |
| 2026-05-07 15:52 | 64.12961 | -26.10030 | 32927 ft | 444 kts | 297° |
| 2026-05-07 15:52 | 64.14214 | -26.16493 | 33246 ft | 443 kts | 297° |
| 2026-05-07 15:52 | 64.15460 | -26.22941 | 33560 ft | 442 kts | 297° |
| 2026-05-07 15:52 | 64.16701 | -26.29380 | 33803 ft | 443 kts | 297° |
| 2026-05-07 15:53 | 64.17932 | -26.35784 | 34041 ft | 444 kts | 297° |
| 2026-05-07 15:53 | 64.19187 | -26.42341 | 34325 ft | 443 kts | 297° |
| 2026-05-07 15:53 | 64.20405 | -26.48724 | 34588 ft | 442 kts | 297° |
| 2026-05-07 15:53 | 64.21638 | -26.55201 | 34787 ft | 442 kts | 297° |
| 2026-05-07 15:54 | 64.22853 | -26.61605 | 34960 ft | 443 kts | 297° |
| 2026-05-07 15:54 | 64.24090 | -26.68148 | 35156 ft | 443 kts | 297° |
| 2026-05-07 15:54 | 64.25312 | -26.74636 | 35391 ft | 443 kts | 297° |
| 2026-05-07 15:54 | 64.26526 | -26.81099 | 35583 ft | 443 kts | 297° |
| 2026-05-07 15:55 | 64.27767 | -26.87728 | 35734 ft | 444 kts | 297° |
| 2026-05-07 15:55 | 64.28987 | -26.94264 | 35951 ft | 444 kts | 297° |
| 2026-05-07 15:55 | 64.30203 | -27.00802 | 36162 ft | 443 kts | 297° |
| 2026-05-07 15:55 | 64.31414 | -27.07334 | 36343 ft | 444 kts | 297° |
| 2026-05-07 15:56 | 64.32628 | -27.13904 | 36507 ft | 444 kts | 296° |
| 2026-05-07 15:56 | 64.33836 | -27.20466 | 36692 ft | 445 kts | 296° |
| 2026-05-07 15:56 | 64.35042 | -27.27035 | 36850 ft | 444 kts | 296° |
| 2026-05-07 15:56 | 64.36238 | -27.33575 | 37071 ft | 443 kts | 296° |
| 2026-05-07 15:57 | 64.37431 | -27.40123 | 37348 ft | 440 kts | 296° |
| 2026-05-07 15:57 | 64.38617 | -27.46649 | 37518 ft | 441 kts | 296° |
| 2026-05-07 15:57 | 64.39802 | -27.53191 | 37641 ft | 442 kts | 296° |
| 2026-05-07 15:57 | 64.40975 | -27.59681 | 37756 ft | 443 kts | 296° |
| 2026-05-07 15:58 | 64.42173 | -27.66339 | 37942 ft | 443 kts | 296° |
| 2026-05-07 15:58 | 64.43337 | -27.72829 | 38121 ft | 442 kts | 296° |
| 2026-05-07 15:58 | 64.44516 | -27.79425 | 38287 ft | 442 kts | 296° |
| 2026-05-07 15:59 | 64.46867 | -27.92645 | 38329 ft | 446 kts | 296° |
| 2026-05-07 15:59 | 64.49212 | -28.05926 | 38338 ft | 444 kts | 296° |
| 2026-05-07 16:00 | 64.51540 | -28.19196 | 38336 ft | 442 kts | 295° |
| 2026-05-07 16:00 | 64.53843 | -28.32418 | 38337 ft | 441 kts | 295° |
| 2026-05-07 16:01 | 64.56118 | -28.45567 | 38340 ft | 439 kts | 295° |
| 2026-05-07 16:01 | 64.58380 | -28.58724 | 38331 ft | 438 kts | 295° |
| 2026-05-07 16:02 | 64.60627 | -28.71888 | 38339 ft | 437 kts | 295° |
| 2026-05-07 16:02 | 64.62861 | -28.85066 | 38335 ft | 437 kts | 295° |
| 2026-05-07 16:03 | 64.65066 | -28.98162 | 38331 ft | 437 kts | 295° |
| 2026-05-07 16:03 | 64.67277 | -29.11381 | 38333 ft | 437 kts | 295° |
| 2026-05-07 16:04 | 64.69481 | -29.24655 | 38335 ft | 437 kts | 295° |
| 2026-05-07 16:04 | 64.71680 | -29.37992 | 38335 ft | 438 kts | 295° |
| 2026-05-07 16:05 | 64.73861 | -29.51315 | 38335 ft | 438 kts | 295° |
| 2026-05-07 16:05 | 64.76032 | -29.64671 | 38333 ft | 439 kts | 295° |
| 2026-05-07 16:06 | 64.78197 | -29.78092 | 38335 ft | 439 kts | 295° |
| 2026-05-07 16:06 | 64.80332 | -29.91401 | 38335 ft | 439 kts | 295° |
| 2026-05-07 16:07 | 64.82345 | -30.04944 | 38321 ft | 442 kts | 289° |
| 2026-05-07 16:07 | 64.83789 | -30.19005 | 38324 ft | 443 kts | 287° |
| 2026-05-07 16:08 | 64.85158 | -30.33099 | 38328 ft | 443 kts | 287° |
| 2026-05-07 16:08 | 64.86552 | -30.47207 | 38321 ft | 442 kts | 288° |
| 2026-05-07 16:09 | 64.87957 | -30.61273 | 38323 ft | 442 kts | 288° |
| 2026-05-07 16:09 | 64.89359 | -30.75372 | 38324 ft | 442 kts | 288° |
| 2026-05-07 16:10 | 64.90743 | -30.89435 | 38321 ft | 440 kts | 288° |
| 2026-05-07 16:10 | 64.92113 | -31.03507 | 38328 ft | 440 kts | 287° |
| 2026-05-07 16:11 | 64.93466 | -31.17556 | 38319 ft | 439 kts | 287° |
| 2026-05-07 16:11 | 64.94805 | -31.31613 | 38312 ft | 438 kts | 287° |
| 2026-05-07 16:12 | 64.96128 | -31.45658 | 38317 ft | 438 kts | 287° |
| 2026-05-07 16:12 | 64.97435 | -31.59692 | 38319 ft | 437 kts | 287° |
| 2026-05-07 16:13 | 64.98720 | -31.73636 | 38321 ft | 437 kts | 287° |
| 2026-05-07 16:13 | 64.99998 | -31.87667 | 38320 ft | 436 kts | 287° |
| 2026-05-07 16:14 | 65.01263 | -32.01704 | 38303 ft | 435 kts | 287° |
| 2026-05-07 16:14 | 65.02514 | -32.15739 | 37897 ft | 441 kts | 287° |
| 2026-05-07 16:14 | 65.02933 | -32.20457 | 37605 ft | 441 kts | 287° |
| 2026-05-07 16:15 | 65.03764 | -32.29927 | 36834 ft | 438 kts | 288° |
| 2026-05-07 16:15 | 65.04377 | -32.36975 | 36279 ft | 436 kts | 288° |
| 2026-05-07 16:15 | 65.04988 | -32.44025 | 35662 ft | 437 kts | 289° |
| 2026-05-07 16:15 | 65.05595 | -32.51063 | 35047 ft | 437 kts | 289° |
| 2026-05-07 16:16 | 65.06200 | -32.58112 | 34395 ft | 438 kts | 289° |
| 2026-05-07 16:16 | 65.06803 | -32.65184 | 33877 ft | 435 kts | 290° |
| 2026-05-07 16:16 | 65.07393 | -32.72178 | 33353 ft | 431 kts | 290° |
| 2026-05-07 16:16 | 65.07972 | -32.79085 | 32884 ft | 426 kts | 290° |
| 2026-05-07 16:17 | 65.08542 | -32.85932 | 32446 ft | 421 kts | 290° |
| 2026-05-07 16:17 | 65.09094 | -32.92578 | 32008 ft | 417 kts | 290° |
| 2026-05-07 16:17 | 65.09651 | -32.99318 | 31581 ft | 413 kts | 291° |
| 2026-05-07 16:17 | 65.10190 | -33.05868 | 31143 ft | 409 kts | 291° |
| 2026-05-07 16:18 | 65.10730 | -33.12470 | 30674 ft | 405 kts | 291° |
| 2026-05-07 16:18 | 65.11259 | -33.18977 | 30275 ft | 400 kts | 291° |
| 2026-05-07 16:18 | 65.11782 | -33.25437 | 29800 ft | 396 kts | 291° |
| 2026-05-07 16:18 | 65.12294 | -33.31808 | 29366 ft | 391 kts | 291° |
| 2026-05-07 16:19 | 65.12800 | -33.38132 | 28945 ft | 386 kts | 290° |
| 2026-05-07 16:19 | 65.13136 | -33.42354 | 28655 ft | 383 kts | 290° |
| 2026-05-07 16:19 | 65.13627 | -33.48539 | 28204 ft | 379 kts | 290° |
| 2026-05-07 16:19 | 65.14109 | -33.54659 | 27818 ft | 374 kts | 290° |
| 2026-05-07 16:20 | 65.14577 | -33.60624 | 27408 ft | 371 kts | 290° |
| 2026-05-07 16:20 | 65.15046 | -33.66634 | 26999 ft | 367 kts | 290° |
| 2026-05-07 16:20 | 65.15508 | -33.72583 | 26586 ft | 364 kts | 289° |
| 2026-05-07 16:20 | 65.15964 | -33.78484 | 26187 ft | 362 kts | 289° |
| 2026-05-07 16:21 | 65.16415 | -33.84351 | 25783 ft | 359 kts | 289° |
| 2026-05-07 16:21 | 65.16860 | -33.90177 | 25386 ft | 356 kts | 289° |
| 2026-05-07 16:21 | 65.17299 | -33.95963 | 24992 ft | 354 kts | 289° |
| 2026-05-07 16:21 | 65.17734 | -34.01724 | 24607 ft | 352 kts | 289° |
| 2026-05-07 16:22 | 65.18163 | -34.07424 | 24215 ft | 350 kts | 288° |
| 2026-05-07 16:22 | 65.18589 | -34.13128 | 23812 ft | 349 kts | 288° |
| 2026-05-07 16:22 | 65.19011 | -34.18811 | 23337 ft | 347 kts | 288° |
| 2026-05-07 16:22 | 65.19426 | -34.24430 | 22897 ft | 344 kts | 288° |
| 2026-05-07 16:23 | 65.19831 | -34.29957 | 22571 ft | 339 kts | 287° |
| 2026-05-07 16:23 | 65.20236 | -34.35501 | 22171 ft | 339 kts | 287° |
| 2026-05-07 16:23 | 65.20636 | -34.41004 | 21804 ft | 338 kts | 287° |
| 2026-05-07 16:23 | 65.21039 | -34.46545 | 21422 ft | 344 kts | 287° |
| 2026-05-07 16:24 | 65.21454 | -34.52244 | 21027 ft | 351 kts | 287° |
| 2026-05-07 16:24 | 65.21866 | -34.57990 | 20618 ft | 351 kts | 287° |
| 2026-05-07 16:24 | 65.22269 | -34.63698 | 20196 ft | 348 kts | 286° |
| 2026-05-07 16:24 | 65.22666 | -34.69356 | 19822 ft | 345 kts | 286° |
| 2026-05-07 16:25 | 65.23059 | -34.74980 | 19429 ft | 342 kts | 286° |
| 2026-05-07 16:25 | 65.23445 | -34.80504 | 19059 ft | 340 kts | 286° |
| 2026-05-07 16:25 | 65.23833 | -34.86100 | 18672 ft | 337 kts | 286° |
| 2026-05-07 16:25 | 65.24210 | -34.91542 | 18247 ft | 335 kts | 286° |
| 2026-05-07 16:26 | 65.24592 | -34.97093 | 17830 ft | 333 kts | 286° |
| 2026-05-07 16:26 | 65.24958 | -35.02443 | 17438 ft | 330 kts | 285° |
| 2026-05-07 16:26 | 65.25324 | -35.07819 | 17076 ft | 327 kts | 285° |
| 2026-05-07 16:26 | 65.25687 | -35.13161 | 16692 ft | 325 kts | 285° |
| 2026-05-07 16:27 | 65.26045 | -35.18479 | 16322 ft | 322 kts | 285° |
| 2026-05-07 16:27 | 65.26397 | -35.23744 | 15959 ft | 320 kts | 284° |
| 2026-05-07 16:27 | 65.26776 | -35.28976 | 15581 ft | 317 kts | 288° |
| 2026-05-07 16:27 | 65.27391 | -35.34019 | 15066 ft | 317 kts | 293° |
| 2026-05-07 16:28 | 65.28123 | -35.38977 | 14702 ft | 315 kts | 294° |
| 2026-05-07 16:28 | 65.28871 | -35.43887 | 14322 ft | 313 kts | 294° |
| 2026-05-07 16:28 | 65.29611 | -35.48772 | 13943 ft | 312 kts | 293° |
| 2026-05-07 16:28 | 65.30338 | -35.53631 | 13562 ft | 310 kts | 293° |
| 2026-05-07 16:29 | 65.31055 | -35.58486 | 13226 ft | 307 kts | 292° |
| 2026-05-07 16:29 | 65.31749 | -35.63239 | 12870 ft | 305 kts | 292° |
| 2026-05-07 16:29 | 65.32449 | -35.68069 | 12502 ft | 303 kts | 292° |
| 2026-05-07 16:29 | 65.33124 | -35.72757 | 12176 ft | 300 kts | 291° |
| 2026-05-07 16:30 | 65.33801 | -35.77478 | 11828 ft | 299 kts | 291° |
| 2026-05-07 16:30 | 65.34473 | -35.82186 | 11487 ft | 297 kts | 291° |
| 2026-05-07 16:30 | 65.35138 | -35.86863 | 11143 ft | 296 kts | 290° |
| 2026-05-07 16:30 | 65.35797 | -35.91511 | 10832 ft | 294 kts | 290° |
| 2026-05-07 16:31 | 65.36439 | -35.96061 | 10722 ft | 284 kts | 290° |
| 2026-05-07 16:31 | 65.37065 | -36.00506 | 10582 ft | 276 kts | 290° |
| 2026-05-07 16:31 | 65.37668 | -36.04801 | 10455 ft | 268 kts | 290° |
| 2026-05-07 16:31 | 65.38253 | -36.08978 | 10350 ft | 261 kts | 290° |
| 2026-05-07 16:32 | 65.38825 | -36.13067 | 10144 ft | 257 kts | 289° |
| 2026-05-07 16:32 | 65.39388 | -36.17106 | 9894 ft | 254 kts | 289° |
| 2026-05-07 16:32 | 65.39945 | -36.21109 | 9617 ft | 252 kts | 289° |
| 2026-05-07 16:32 | 65.40499 | -36.25102 | 9342 ft | 251 kts | 289° |
| 2026-05-07 16:33 | 65.41047 | -36.29053 | 9081 ft | 249 kts | 289° |
| 2026-05-07 16:33 | 65.41590 | -36.32983 | 8839 ft | 247 kts | 289° |
| 2026-05-07 16:33 | 65.42127 | -36.36877 | 8582 ft | 250 kts | 289° |
| 2026-05-07 16:33 | 65.42686 | -36.40939 | 8328 ft | 256 kts | 288° |
| 2026-05-07 16:34 | 65.43250 | -36.45046 | 8062 ft | 262 kts | 288° |
| 2026-05-07 16:34 | 65.43819 | -36.49205 | 7774 ft | 262 kts | 288° |
| 2026-05-07 16:34 | 65.44387 | -36.53365 | 7487 ft | 261 kts | 288° |
| 2026-05-07 16:34 | 65.44951 | -36.57499 | 7193 ft | 260 kts | 288° |
| 2026-05-07 16:35 | 65.45505 | -36.61578 | 6923 ft | 259 kts | 288° |
| 2026-05-07 16:35 | 65.46062 | -36.65684 | 6649 ft | 258 kts | 287° |
| 2026-05-07 16:35 | 65.46617 | -36.69790 | 6330 ft | 258 kts | 287° |
| 2026-05-07 16:35 | 65.47168 | -36.73876 | 6079 ft | 255 kts | 287° |
| 2026-05-07 16:36 | 65.47702 | -36.77840 | 6022 ft | 241 kts | 287° |
| 2026-05-07 16:36 | 65.48199 | -36.81538 | 5889 ft | 223 kts | 287° |
| 2026-05-07 16:36 | 65.48655 | -36.84939 | 5747 ft | 205 kts | 287° |
| 2026-05-07 16:36 | 65.49074 | -36.88073 | 5597 ft | 189 kts | 287° |
| 2026-05-07 16:37 | 65.49466 | -36.91009 | 5348 ft | 180 kts | 287° |
| 2026-05-07 16:37 | 65.49842 | -36.93829 | 5151 ft | 172 kts | 287° |
| 2026-05-07 16:37 | 65.50213 | -36.96622 | 5177 ft | 179 kts | 287° |
| 2026-05-07 16:37 | 65.50596 | -36.99511 | 5157 ft | 182 kts | 287° |
| 2026-05-07 16:38 | 65.50981 | -37.02412 | 5160 ft | 182 kts | 287° |
| 2026-05-07 16:38 | 65.51365 | -37.05307 | 5150 ft | 182 kts | 287° |
| 2026-05-07 16:38 | 65.51749 | -37.08208 | 5147 ft | 180 kts | 287° |
| 2026-05-07 16:38 | 65.52125 | -37.11055 | 4977 ft | 176 kts | 287° |
| 2026-05-07 16:39 | 65.52494 | -37.13864 | 4574 ft | 177 kts | 287° |
| 2026-05-07 16:39 | 65.52864 | -37.16684 | 4131 ft | 180 kts | 287° |
| 2026-05-07 16:39 | 65.53226 | -37.19446 | 3808 ft | 165 kts | 287° |
| 2026-05-07 16:39 | 65.53547 | -37.21892 | 3736 ft | 144 kts | 287° |
| 2026-05-07 16:40 | 65.53848 | -37.24199 | 3708 ft | 146 kts | 287° |
| 2026-05-07 16:40 | 65.54155 | -37.26546 | 3523 ft | 148 kts | 287° |
| 2026-05-07 16:40 | 65.54462 | -37.28893 | 3264 ft | 145 kts | 288° |
| 2026-05-07 16:40 | 65.54995 | -37.30869 | 3011 ft | 144 kts | 332° |
| 2026-05-07 16:41 | 65.55977 | -37.30838 | 3031 ft | 154 kts | 26° |
| 2026-05-07 16:41 | 65.56615 | -37.28955 | 2961 ft | 145 kts | 81° |
| 2026-05-07 16:41 | 65.56647 | -37.26532 | 2685 ft | 154 kts | 90° |
| 2026-05-07 16:41 | 65.56662 | -37.23593 | 1494 ft | 190 kts | 82° |
| 2026-05-07 16:42 | 65.56893 | -37.20555 | 947 ft | 182 kts | 79° |
| 2026-05-07 16:42 | 65.57068 | -37.17693 | 581 ft | 166 kts | 84° |
| 2026-05-07 16:42 | 65.57201 | -37.15013 | 239 ft | 155 kts | 82° |
| 2026-05-07 16:42 | 65.57321 | -37.12604 | 124 ft | 138 kts | 85° |
| 2026-05-07 16:43 | 65.57400 | -37.10415 | 134 ft | 113 kts | 86° |
| 2026-05-07 16:43 | 65.57494 | -37.08500 | 355 ft | 118 kts | 78° |
| 2026-05-07 16:43 | 65.57512 | -37.06372 | 849 ft | 147 kts | 100° |
| 2026-05-07 16:43 | 65.57207 | -37.03705 | 1459 ft | 176 kts | 111° |
| 2026-05-07 16:44 | 65.56599 | -37.00789 | 2085 ft | 204 kts | 127° |
| 2026-05-07 16:44 | 65.55587 | -36.98220 | 2780 ft | 221 kts | 139° |
| 2026-05-07 16:44 | 65.54351 | -36.96378 | 3524 ft | 197 kts | 163° |
| 2026-05-07 16:44 | 65.53089 | -36.96039 | 4455 ft | 182 kts | 183° |
| 2026-05-07 16:45 | 65.51810 | -36.97220 | 4259 ft | 215 kts | 226° |
| 2026-05-07 16:45 | 65.51202 | -37.00456 | 4683 ft | 221 kts | 257° |
| 2026-05-07 16:45 | 65.50884 | -37.04252 | 4211 ft | 231 kts | 259° |
| 2026-05-07 16:45 | 65.50723 | -37.07891 | 4132 ft | 204 kts | 269° |
| 2026-05-07 16:46 | 65.50841 | -37.11141 | 4061 ft | 187 kts | 279° |
| 2026-05-07 16:46 | 65.51167 | -37.14130 | 3422 ft | 186 kts | 287° |
| 2026-05-07 16:46 | 65.51532 | -37.17111 | 2674 ft | 188 kts | 285° |
| 2026-05-07 16:46 | 65.51966 | -37.19866 | 2497 ft | 162 kts | 296° |
| 2026-05-07 16:47 | 65.52483 | -37.22252 | 2039 ft | 159 kts | 300° |
| 2026-05-07 16:47 | 65.53094 | -37.24385 | 1794 ft | 143 kts | 310° |
| 2026-05-07 16:47 | 65.53823 | -37.25844 | 1932 ft | 141 kts | 325° |
| 2026-05-07 16:47 | 65.54637 | -37.27096 | 1844 ft | 140 kts | 330° |
| 2026-05-07 16:48 | 65.55557 | -37.27726 | 1608 ft | 140 kts | 8° |
| 2026-05-07 16:48 | 65.56419 | -37.26717 | 1386 ft | 142 kts | 44° |
| 2026-05-07 16:48 | 65.56934 | -37.24701 | 1185 ft | 141 kts | 68° |
| 2026-05-07 16:48 | 65.57073 | -37.22365 | 939 ft | 143 kts | 90° |
| 2026-05-07 16:49 | 65.57031 | -37.19980 | 745 ft | 142 kts | 93° |
| 2026-05-07 16:49 | 65.57069 | -37.17618 | 563 ft | 142 kts | 83° |
| 2026-05-07 16:49 | 65.57203 | -37.15297 | 297 ft | 138 kts | 83° |
| 2026-05-07 16:49 | 65.57313 | -37.13102 | 109 ft | 122 kts | 84° |
| 2026-05-07 16:50 | 65.57384 | -37.11338 | 101 ft | 81 kts | 85° |
| 2026-05-07 16:50 | 65.57423 | -37.10463 | 116 ft | 62 kts | 77° |